createdAt,value
2022-12-27T00:00:01.378Z,60.91
2022-12-27T00:02:28.832Z,60.88
2022-12-27T00:04:56.089Z,60.53
2022-12-27T00:07:23.361Z,61.17
2022-12-27T00:09:50.866Z,61.18
2022-12-27T00:12:25.511Z,61.43
2022-12-27T00:14:52.758Z,61.15
2022-12-27T00:17:19.907Z,60.58
2022-12-27T00:19:46.981Z,60.80
2022-12-27T00:22:14.076Z,62.09
2022-12-27T00:24:41.310Z,61.49
2022-12-27T00:27:08.388Z,61.12
2022-12-27T00:29:35.538Z,61.02
2022-12-27T00:32:02.861Z,61.14
2022-12-27T00:34:30.137Z,62.12
2022-12-27T00:36:57.493Z,61.41
2022-12-27T00:39:24.734Z,61.79
2022-12-27T00:41:51.808Z,61.80
2022-12-27T00:44:18.868Z,62.56
2022-12-27T00:46:46.107Z,61.92
2022-12-27T00:49:13.197Z,62.28
2022-12-27T00:51:40.303Z,62.35
2022-12-27T00:54:07.839Z,62.11
2022-12-27T00:56:35.020Z,62.43
2022-12-27T00:59:04.952Z,62.28
2022-12-27T01:01:35.259Z,63.12
2022-12-27T01:04:03.383Z,62.72
2022-12-27T01:06:32.692Z,63.23
2022-12-27T01:09:01.421Z,63.27
2022-12-27T01:11:29.856Z,62.65
2022-12-27T01:14:02.670Z,62.87
2022-12-27T01:16:31.358Z,63.37
2022-12-27T01:18:59.287Z,63.15
2022-12-27T01:21:28.017Z,62.46
2022-12-27T01:23:55.420Z,62.04
2022-12-27T01:26:24.380Z,62.84
2022-12-27T01:28:53.027Z,62.84
2022-12-27T01:31:24.972Z,62.57
2022-12-27T01:34:00.357Z,62.25
2022-12-27T01:36:29.868Z,62.35
2022-12-27T01:38:59.157Z,62.17
2022-12-27T01:41:53.186Z,62.71
2022-12-27T01:44:49.449Z,62.87
2022-12-27T01:47:38.512Z,63.19
2022-12-27T01:50:10.092Z,63.49
2022-12-27T01:53:17.871Z,63.68
2022-12-27T01:56:01.594Z,63.22
2022-12-27T01:58:45.114Z,63.13
2022-12-27T02:01:19.164Z,63.54
2022-12-27T02:03:52.282Z,63.68
2022-12-27T02:06:22.447Z,63.29
2022-12-27T02:09:07.913Z,62.89
2022-12-27T02:11:51.787Z,62.19
2022-12-27T02:14:28.355Z,62.64
2022-12-27T02:16:58.750Z,62.23
2022-12-27T02:19:49.002Z,62.83
2022-12-27T02:23:15.660Z,62.58
2022-12-27T02:26:11.038Z,63.87
2022-12-27T02:29:02.445Z,63.54
2022-12-27T02:31:47.977Z,64.38
2022-12-27T02:34:21.056Z,63.30
2022-12-27T02:36:53.282Z,63.96
2022-12-27T02:39:22.100Z,63.80
2022-12-27T02:42:08.091Z,63.14
2022-12-27T02:44:53.544Z,63.14
2022-12-27T02:47:41.595Z,63.33
2022-12-27T02:50:30.146Z,63.10
2022-12-27T02:53:55.886Z,63.05
2022-12-27T02:57:10.912Z,62.78
2022-12-27T03:00:24.729Z,62.49
2022-12-27T03:03:16.675Z,63.17
2022-12-27T03:06:32.161Z,63.41
2022-12-27T03:09:48.914Z,63.29
2022-12-27T03:12:50.351Z,63.23
2022-12-27T03:15:47.708Z,63.24
2022-12-27T03:18:21.659Z,62.69
2022-12-27T03:21:08.280Z,63.86
2022-12-27T03:23:56.752Z,63.64
2022-12-27T03:26:26.792Z,64.46
2022-12-27T03:29:14.488Z,64.72
2022-12-27T03:32:04.406Z,64.97
2022-12-27T03:34:38.481Z,64.83
2022-12-27T03:37:34.699Z,64.59
2022-12-27T03:40:31.128Z,65.15
2022-12-27T03:43:13.936Z,65.31
2022-12-27T03:46:24.074Z,65.09
2022-12-27T03:48:51.998Z,64.42
2022-12-27T03:51:21.680Z,64.66
2022-12-27T03:53:52.136Z,65.04
2022-12-27T03:56:21.222Z,64.70
2022-12-27T03:58:48.522Z,64.74
2022-12-27T04:01:15.677Z,64.99
2022-12-27T04:03:43.132Z,65.36
2022-12-27T04:06:10.184Z,65.23
2022-12-27T04:08:55.710Z,64.92
2022-12-27T04:11:41.477Z,64.37
2022-12-27T04:14:27.204Z,64.41
2022-12-27T04:17:13.011Z,64.47
2022-12-27T04:19:58.434Z,65.26
2022-12-27T04:22:44.058Z,64.85
2022-12-27T04:25:29.800Z,64.75
2022-12-27T04:28:16.709Z,64.40
2022-12-27T04:31:02.480Z,64.27
2022-12-27T04:33:48.135Z,63.61
2022-12-27T04:36:15.294Z,63.33
2022-12-27T04:38:42.450Z,63.91
2022-12-27T04:41:27.996Z,64.19
2022-12-27T04:44:13.888Z,64.76
2022-12-27T04:46:59.513Z,64.93
2022-12-27T04:49:45.836Z,64.91
2022-12-27T04:52:35.847Z,64.92
2022-12-27T04:55:19.838Z,63.88
2022-12-27T04:57:47.098Z,64.20
2022-12-27T05:00:34.024Z,64.96
2022-12-27T05:03:04.601Z,64.56
2022-12-27T05:05:32.041Z,64.35
2022-12-27T05:08:18.651Z,65.10
2022-12-27T05:11:04.862Z,64.79
2022-12-27T05:13:50.997Z,65.97
2022-12-27T05:16:18.261Z,65.67
2022-12-27T05:18:45.565Z,65.69
2022-12-27T05:21:12.916Z,65.76
2022-12-27T05:24:04.886Z,66.22
2022-12-27T05:26:32.808Z,66.68
2022-12-27T05:29:01.514Z,65.86
2022-12-27T05:31:29.986Z,66.47
2022-12-27T05:33:58.388Z,65.84
2022-12-27T05:36:26.980Z,65.42
2022-12-27T05:38:54.180Z,65.67
2022-12-27T05:41:21.471Z,65.58
2022-12-27T05:43:48.728Z,66.46
2022-12-27T05:46:18.980Z,66.75
2022-12-27T05:48:47.203Z,66.91
2022-12-27T05:51:19.697Z,67.42
2022-12-27T05:53:47.729Z,66.96
2022-12-27T05:56:18.051Z,66.31
2022-12-27T05:58:45.434Z,66.47
2022-12-27T06:01:15.722Z,66.71
2022-12-27T06:03:43.230Z,66.41
2022-12-27T06:06:11.145Z,66.07
2022-12-27T06:08:39.372Z,66.47
2022-12-27T06:11:09.379Z,66.63
2022-12-27T06:14:09.910Z,67.06
2022-12-27T06:16:39.754Z,66.75
2022-12-27T06:19:09.691Z,66.93
2022-12-27T06:21:37.489Z,68.04
2022-12-27T06:24:05.357Z,67.69
2022-12-27T06:26:33.432Z,66.56
2022-12-27T06:29:01.394Z,67.01
2022-12-27T06:31:29.487Z,66.95
2022-12-27T06:33:57.953Z,67.84
2022-12-27T06:36:30.502Z,67.13
2022-12-27T06:38:58.336Z,66.16
2022-12-27T06:41:26.148Z,65.76
2022-12-27T06:43:58.589Z,66.21
2022-12-27T06:46:25.844Z,66.02
2022-12-27T06:48:54.847Z,66.50
2022-12-27T06:51:22.401Z,66.92
2022-12-27T06:53:52.548Z,66.62
2022-12-27T06:56:22.660Z,66.44
2022-12-27T06:58:59.881Z,66.66
2022-12-27T07:01:29.039Z,67.05
2022-12-27T07:03:58.880Z,67.85
2022-12-27T07:06:30.761Z,67.84
2022-12-27T07:09:01.522Z,68.06
2022-12-27T07:11:37.778Z,67.42
2022-12-27T07:14:05.216Z,67.35
2022-12-27T07:16:32.698Z,67.14
2022-12-27T07:19:00.947Z,66.76
2022-12-27T07:21:31.952Z,66.21
2022-12-27T07:23:59.516Z,67.31
2022-12-27T07:26:30.993Z,67.40
2022-12-27T07:29:00.923Z,67.74
2022-12-27T07:31:32.372Z,67.90
2022-12-27T07:34:03.262Z,68.02
2022-12-27T07:36:35.874Z,68.54
2022-12-27T07:39:03.762Z,68.07
2022-12-27T07:41:31.391Z,67.68
2022-12-27T07:44:05.095Z,67.95
2022-12-27T07:46:33.392Z,67.54
2022-12-27T07:49:11.082Z,67.50
2022-12-27T07:51:47.587Z,67.90
2022-12-27T07:54:14.813Z,68.33
2022-12-27T07:56:42.048Z,67.55
2022-12-27T07:59:13.414Z,67.46
2022-12-27T08:02:01.335Z,68.26
2022-12-27T08:04:32.164Z,68.31
2022-12-27T08:07:24.453Z,69.16
2022-12-27T08:09:55.543Z,68.15
2022-12-27T08:12:22.979Z,67.40
2022-12-27T08:14:50.364Z,67.22
2022-12-27T08:17:42.599Z,67.48
2022-12-27T08:20:16.254Z,67.21
2022-12-27T08:22:43.590Z,66.92
2022-12-27T08:25:10.847Z,67.87
2022-12-27T08:27:39.306Z,67.47
2022-12-27T08:30:07.344Z,68.03
2022-12-27T08:32:35.445Z,68.65
2022-12-27T08:35:25.234Z,68.45
2022-12-27T08:37:50.038Z,68.52
2022-12-27T08:40:17.250Z,69.04
2022-12-27T08:42:44.759Z,68.54
2022-12-27T08:45:11.757Z,68.61
2022-12-27T08:47:39.755Z,68.38
2022-12-27T08:50:07.703Z,68.37
2022-12-27T08:52:35.450Z,68.42
2022-12-27T08:55:06.452Z,68.61
2022-12-27T08:57:34.074Z,68.00
2022-12-27T09:00:01.429Z,67.91
2022-12-27T09:02:31.547Z,68.54
2022-12-27T09:04:58.858Z,68.61
2022-12-27T09:07:26.119Z,68.88
2022-12-27T09:09:53.295Z,68.26
2022-12-27T09:12:20.931Z,69.09
2022-12-27T09:14:48.285Z,68.74
2022-12-27T09:17:15.435Z,69.87
2022-12-27T09:19:42.548Z,70.46
2022-12-27T09:22:09.810Z,70.72
2022-12-27T09:24:36.878Z,70.46
2022-12-27T09:27:04.135Z,70.34
2022-12-27T09:29:31.185Z,69.49
2022-12-27T09:31:58.408Z,70.41
2022-12-27T09:34:25.555Z,70.83
2022-12-27T09:36:52.798Z,71.18
2022-12-27T09:39:20.002Z,70.46
2022-12-27T09:42:46.629Z,71.30
2022-12-27T09:45:18.041Z,70.74
2022-12-27T09:48:11.663Z,70.62
2022-12-27T09:50:55.102Z,71.03
2022-12-27T09:53:49.327Z,70.87
2022-12-27T09:56:35.697Z,70.02
2022-12-27T09:59:24.506Z,69.75
2022-12-27T10:01:52.342Z,69.13
2022-12-27T10:04:20.385Z,69.24
2022-12-27T10:06:50.291Z,69.80
2022-12-27T10:09:20.295Z,70.54
2022-12-27T10:12:18.104Z,70.54
2022-12-27T10:14:59.393Z,70.89
2022-12-27T10:17:53.341Z,70.87
2022-12-27T10:20:33.025Z,70.06
2022-12-27T10:23:06.659Z,70.30
2022-12-27T10:25:36.200Z,71.04
2022-12-27T10:28:16.506Z,70.15
2022-12-27T10:30:44.639Z,70.98
2022-12-27T10:33:41.076Z,69.97
2022-12-27T10:36:13.026Z,70.97
2022-12-27T10:38:40.356Z,70.41
2022-12-27T10:41:32.764Z,70.93
2022-12-27T10:44:01.418Z,70.06
2022-12-27T10:46:33.417Z,71.07
2022-12-27T10:49:22.656Z,71.59
2022-12-27T10:51:52.149Z,70.72
2022-12-27T10:54:29.384Z,71.03
2022-12-27T10:57:15.691Z,70.74
2022-12-27T10:59:42.722Z,70.63
2022-12-27T11:02:19.867Z,70.92
2022-12-27T11:04:59.336Z,70.93
2022-12-27T11:07:32.142Z,70.55
2022-12-27T11:10:16.810Z,70.00
2022-12-27T11:13:05.716Z,70.27
2022-12-27T11:15:36.445Z,70.19
2022-12-27T11:18:11.738Z,70.83
2022-12-27T11:20:55.354Z,71.18
2022-12-27T11:23:28.735Z,71.20
2022-12-27T11:26:02.094Z,71.70
2022-12-27T11:28:52.978Z,71.74
2022-12-27T11:31:31.048Z,71.72
2022-12-27T11:34:24.227Z,71.40
2022-12-27T11:36:54.624Z,72.53
2022-12-27T11:39:41.726Z,72.33
2022-12-27T11:42:19.048Z,71.58
2022-12-27T11:45:14.233Z,71.99
2022-12-27T11:47:46.057Z,72.29
2022-12-27T11:50:28.484Z,72.73
2022-12-27T11:53:48.778Z,72.91
2022-12-27T11:56:51.169Z,72.91
2022-12-27T11:59:31.373Z,71.69
2022-12-27T12:02:15.393Z,71.71
2022-12-27T12:04:52.977Z,71.98
2022-12-27T12:07:47.375Z,72.11
2022-12-27T12:10:33.099Z,71.97
2022-12-27T12:13:24.151Z,72.17
2022-12-27T12:16:29.114Z,71.19
2022-12-27T12:19:07.631Z,71.37
2022-12-27T12:22:04.897Z,72.56
2022-12-27T12:24:46.932Z,72.86
2022-12-27T12:27:43.241Z,72.84
2022-12-27T12:30:13.614Z,72.74
2022-12-27T12:33:08.147Z,73.04
2022-12-27T12:35:46.618Z,72.51
2022-12-27T12:38:16.550Z,73.18
2022-12-27T12:41:04.145Z,73.89
2022-12-27T12:44:12.836Z,74.87
2022-12-27T12:46:39.707Z,75.28
2022-12-27T12:49:18.605Z,74.49
2022-12-27T12:52:18.083Z,74.44
2022-12-27T12:55:14.685Z,74.55
2022-12-27T12:58:03.979Z,74.24
2022-12-27T13:00:55.418Z,73.93
2022-12-27T13:03:56.676Z,74.29
2022-12-27T13:06:57.436Z,74.20
2022-12-27T13:09:40.070Z,73.68
2022-12-27T13:12:52.688Z,73.76
2022-12-27T13:15:39.330Z,74.03
2022-12-27T13:18:37.423Z,74.30
2022-12-27T13:21:23.453Z,73.58
2022-12-27T13:23:59.374Z,74.33
2022-12-27T13:26:44.929Z,75.19
2022-12-27T13:29:51.603Z,74.89
2022-12-27T13:32:36.058Z,74.79
2022-12-27T13:35:27.758Z,74.92
2022-12-27T13:38:04.745Z,74.36
2022-12-27T13:40:44.231Z,73.99
2022-12-27T13:43:45.348Z,73.63
2022-12-27T13:46:42.880Z,75.23
2022-12-27T13:49:48.148Z,74.28
2022-12-27T13:52:59.285Z,75.32
2022-12-27T13:55:51.946Z,74.35
2022-12-27T13:58:37.774Z,74.55
2022-12-27T14:01:30.649Z,75.32
2022-12-27T14:04:24.313Z,74.63
2022-12-27T14:07:03.657Z,74.91
2022-12-27T14:09:49.936Z,74.13
2022-12-27T14:12:20.112Z,73.69
2022-12-27T14:14:48.546Z,73.97
2022-12-27T14:17:15.850Z,73.50
2022-12-27T14:20:07.650Z,73.36
2022-12-27T14:23:02.710Z,74.25
2022-12-27T14:25:32.983Z,73.61
2022-12-27T14:28:37.156Z,73.04
2022-12-27T14:31:39.455Z,72.42
2022-12-27T14:34:18.557Z,72.32
2022-12-27T14:37:22.653Z,73.50
2022-12-27T14:40:19.013Z,74.68
2022-12-27T14:42:54.894Z,74.24
2022-12-27T14:45:59.364Z,74.02
2022-12-27T14:48:57.539Z,74.28
2022-12-27T14:54:42.068Z,73.72
2022-12-27T14:57:18.010Z,74.92
2022-12-27T15:00:19.682Z,75.02
2022-12-27T15:03:11.891Z,75.15
2022-12-27T15:06:04.606Z,74.56
2022-12-27T15:08:41.331Z,74.23
2022-12-27T15:11:42.602Z,75.45
2022-12-27T15:14:35.482Z,75.09
2022-12-27T15:17:24.584Z,74.31
2022-12-27T15:20:12.418Z,75.75
2022-12-27T15:22:39.831Z,75.15
2022-12-27T15:25:18.937Z,74.54
2022-12-27T15:28:33.254Z,76.05
2022-12-27T15:31:16.323Z,75.76
2022-12-27T15:33:46.124Z,75.48
2022-12-27T15:36:18.857Z,75.66
2022-12-27T15:38:55.061Z,76.51
2022-12-27T15:41:49.743Z,76.83
2022-12-27T15:44:40.022Z,76.83
2022-12-27T15:47:37.193Z,76.29
2022-12-27T15:50:07.152Z,76.50
2022-12-27T15:53:11.041Z,76.94
2022-12-27T15:55:47.314Z,76.41
2022-12-27T15:58:18.563Z,76.14
2022-12-27T16:01:06.019Z,76.68
2022-12-27T16:03:38.485Z,76.64
2022-12-27T16:06:09.645Z,76.74
2022-12-27T16:08:40.670Z,76.95
2022-12-27T16:11:13.167Z,77.60
2022-12-27T16:13:48.742Z,77.36
2022-12-27T16:16:28.598Z,77.44
2022-12-27T16:19:01.804Z,77.56
2022-12-27T16:21:39.895Z,77.18
2022-12-27T16:24:15.528Z,77.34
2022-12-27T16:26:57.151Z,76.98
2022-12-27T16:29:29.017Z,77.35
2022-12-27T16:32:13.795Z,77.26
2022-12-27T16:34:44.102Z,76.60
2022-12-27T16:37:24.397Z,77.17
2022-12-27T16:39:57.617Z,76.36
2022-12-27T16:42:47.784Z,76.48
2022-12-27T16:45:39.668Z,76.98
2022-12-27T16:48:11.565Z,76.91
2022-12-27T16:50:47.473Z,77.43
2022-12-27T16:53:36.165Z,77.94
2022-12-27T16:56:12.423Z,77.45
2022-12-27T16:58:40.063Z,77.56
2022-12-27T17:01:50.737Z,77.79
2022-12-27T17:04:53.523Z,76.58
2022-12-27T17:07:44.253Z,77.36
2022-12-27T17:10:32.108Z,76.40
2022-12-27T17:13:20.117Z,76.87
2022-12-27T17:15:56.405Z,76.68
2022-12-27T17:18:31.570Z,76.75
2022-12-27T17:21:08.852Z,76.68
2022-12-27T17:23:42.503Z,76.99
2022-12-27T17:26:41.633Z,76.61
2022-12-27T17:29:49.764Z,76.12
2022-12-27T17:32:47.577Z,76.35
2022-12-27T17:35:52.167Z,75.75
2022-12-27T17:38:32.356Z,75.39
2022-12-27T17:41:44.708Z,75.85
2022-12-27T17:44:41.075Z,75.17
2022-12-27T17:47:35.430Z,75.57
2022-12-27T17:50:05.517Z,75.69
2022-12-27T17:55:43.804Z,75.79
2022-12-27T17:58:13.860Z,75.45
2022-12-27T18:00:45.677Z,75.66
2022-12-27T18:03:14.090Z,75.04
2022-12-27T18:05:43.970Z,76.09
2022-12-27T18:08:32.824Z,75.53
2022-12-27T18:11:05.651Z,75.94
2022-12-27T18:13:39.775Z,75.99
2022-12-27T18:16:19.729Z,75.80
2022-12-27T18:18:49.934Z,76.06
2022-12-27T18:21:23.050Z,76.33
2022-12-27T18:23:52.914Z,75.97
2022-12-27T18:26:31.615Z,76.15
2022-12-27T18:28:59.207Z,76.13
2022-12-27T18:31:42.323Z,75.83
2022-12-27T18:34:35.612Z,75.93
2022-12-27T18:37:04.613Z,75.90
2022-12-27T18:39:36.248Z,76.37
2022-12-27T18:42:12.230Z,77.67
2022-12-27T18:44:47.375Z,76.42
2022-12-27T18:47:27.358Z,77.22
2022-12-27T18:50:00.552Z,76.80
2022-12-27T18:52:38.556Z,76.98
2022-12-27T18:55:08.743Z,77.74
2022-12-27T18:57:37.294Z,77.40
2022-12-27T19:00:19.458Z,77.19
2022-12-27T19:02:46.786Z,77.87
2022-12-27T19:05:20.077Z,77.46
2022-12-27T19:07:49.938Z,78.47
2022-12-27T19:10:23.375Z,78.09
2022-12-27T19:12:55.601Z,78.63
2022-12-27T19:15:28.142Z,78.34
2022-12-27T19:18:02.708Z,77.51
2022-12-27T19:20:37.150Z,77.64
2022-12-27T19:23:39.012Z,77.89
2022-12-27T19:26:16.896Z,77.87
2022-12-27T19:28:45.597Z,77.70
2022-12-27T19:31:20.038Z,78.08
2022-12-27T19:33:49.551Z,78.28
2022-12-27T19:36:17.455Z,78.55
2022-12-27T19:38:48.052Z,77.81
2022-12-27T19:41:15.687Z,77.87
2022-12-27T19:43:46.225Z,77.63
2022-12-27T19:46:14.811Z,77.69
2022-12-27T19:48:42.405Z,78.05
2022-12-27T19:51:15.615Z,77.81
2022-12-27T19:53:44.519Z,77.50
2022-12-27T19:56:12.214Z,77.89
2022-12-27T19:58:39.303Z,78.58
2022-12-27T20:01:07.143Z,77.68
2022-12-27T20:03:34.370Z,77.32
2022-12-27T20:06:14.268Z,76.95
2022-12-27T20:08:45.888Z,77.60
2022-12-27T20:11:19.028Z,77.41
2022-12-27T20:13:46.659Z,77.58
2022-12-27T20:16:16.550Z,77.91
2022-12-27T20:18:45.017Z,77.68
2022-12-27T20:21:13.977Z,77.63
2022-12-27T20:23:41.210Z,76.97
2022-12-27T20:26:08.540Z,77.23
2022-12-27T20:28:35.750Z,77.52
2022-12-27T20:31:14.557Z,77.39
2022-12-27T20:33:42.429Z,77.22
2022-12-27T20:36:10.617Z,77.73
2022-12-27T20:38:39.268Z,78.11
2022-12-27T20:41:11.985Z,77.26
2022-12-27T20:43:39.651Z,77.74
2022-12-27T20:46:09.047Z,77.72
2022-12-27T20:48:40.746Z,77.35
2022-12-27T20:51:17.670Z,77.65
2022-12-27T20:53:46.977Z,77.64
2022-12-27T20:56:14.276Z,78.09
2022-12-27T20:58:42.094Z,77.90
2022-12-27T21:01:15.343Z,77.96
2022-12-27T21:03:43.855Z,77.81
2022-12-27T21:06:13.699Z,77.85
2022-12-27T21:08:47.879Z,77.56
2022-12-27T21:11:22.287Z,77.66
2022-12-27T21:13:49.822Z,77.63
2022-12-27T21:16:21.894Z,77.63
2022-12-27T21:18:49.866Z,77.95
2022-12-27T21:21:19.892Z,78.07
2022-12-27T21:23:47.712Z,77.54
2022-12-27T21:26:20.549Z,77.40
2022-12-27T21:28:48.428Z,77.62
2022-12-27T21:31:17.472Z,76.96
2022-12-27T21:33:45.793Z,77.39
2022-12-27T21:36:15.596Z,77.52
2022-12-27T21:38:43.009Z,77.52
2022-12-27T21:41:16.136Z,76.79
2022-12-27T21:43:43.851Z,76.74
2022-12-27T21:46:32.332Z,76.89
2022-12-27T21:49:04.749Z,76.95
2022-12-27T21:51:32.710Z,77.04
2022-12-27T21:54:00.357Z,77.72
2022-12-27T21:56:27.678Z,77.83
2022-12-27T21:58:57.743Z,77.12
2022-12-27T22:01:28.005Z,76.88
2022-12-27T22:03:56.501Z,77.01
2022-12-27T22:06:32.294Z,77.35
2022-12-27T22:09:01.607Z,76.92
2022-12-27T22:11:32.370Z,76.86
2022-12-27T22:14:00.046Z,76.65
2022-12-27T22:16:30.317Z,76.73
2022-12-27T22:18:57.908Z,76.66
2022-12-27T22:21:31.368Z,76.91
2022-12-27T22:24:00.688Z,76.79
2022-12-27T22:26:30.224Z,76.76
2022-12-27T22:28:57.321Z,76.41
2022-12-27T22:31:27.842Z,76.52
2022-12-27T22:33:55.032Z,76.33
2022-12-27T22:36:26.211Z,76.51
2022-12-27T22:38:55.422Z,76.92
2022-12-27T22:41:28.164Z,76.56
2022-12-27T22:43:57.811Z,76.89
2022-12-27T22:46:25.998Z,76.83
2022-12-27T22:48:55.908Z,76.38
2022-12-27T22:51:25.506Z,76.28
2022-12-27T22:53:54.083Z,76.36
2022-12-27T22:56:26.770Z,76.09
2022-12-27T22:58:54.032Z,76.23
2022-12-27T23:01:30.814Z,76.27
2022-12-27T23:03:59.884Z,75.87
2022-12-27T23:06:28.023Z,76.47
2022-12-27T23:08:55.425Z,76.58
2022-12-27T23:11:25.582Z,76.61
2022-12-27T23:13:59.041Z,76.29
2022-12-27T23:16:26.513Z,76.13
2022-12-27T23:18:54.015Z,75.88
2022-12-27T23:21:23.904Z,76.03
2022-12-27T23:23:52.647Z,76.08
2022-12-27T23:26:22.837Z,75.57
2022-12-27T23:28:52.047Z,76.42
2022-12-27T23:31:21.272Z,75.63
2022-12-27T23:33:49.088Z,75.72
2022-12-27T23:36:16.748Z,75.75
2022-12-27T23:38:44.665Z,76.30
2022-12-27T23:41:18.332Z,76.38
2022-12-27T23:43:54.969Z,75.94
2022-12-27T23:46:27.587Z,75.68
2022-12-27T23:48:56.162Z,76.06
2022-12-27T23:51:23.413Z,75.96
2022-12-27T23:53:50.927Z,75.88
2022-12-27T23:56:26.713Z,75.95
2022-12-27T23:58:55.663Z,75.75
